sensor_id;sensor_type;location;lat;lon;timestamp;P1;durP1;ratioP1;P2;durP2;ratioP2
35518;SDS011;21627;48.216;16.482;2023-04-23T00:00:07;13.77;;;4.68;;
35518;SDS011;21627;48.216;16.482;2023-04-23T00:02:39;6.72;;;4.57;;
35518;SDS011;21627;48.216;16.482;2023-04-23T00:05:15;13.38;;;4.97;;
35518;SDS011;21627;48.216;16.482;2023-04-23T00:07:43;10.38;;;4.97;;
35518;SDS011;21627;48.216;16.482;2023-04-23T00:10:10;10.43;;;4.65;;
35518;SDS011;21627;48.216;16.482;2023-04-23T00:12:39;11.13;;;4.60;;
35518;SDS011;21627;48.216;16.482;2023-04-23T00:15:08;12.88;;;4.97;;
35518;SDS011;21627;48.216;16.482;2023-04-23T00:17:36;8.20;;;4.28;;
35518;SDS011;21627;48.216;16.482;2023-04-23T00:20:03;11.82;;;5.20;;
35518;SDS011;21627;48.216;16.482;2023-04-23T00:22:31;11.02;;;5.07;;
35518;SDS011;21627;48.216;16.482;2023-04-23T00:24:58;9.93;;;5.15;;
35518;SDS011;21627;48.216;16.482;2023-04-23T00:27:26;11.57;;;4.82;;
35518;SDS011;21627;48.216;16.482;2023-04-23T00:29:53;9.75;;;4.88;;
35518;SDS011;21627;48.216;16.482;2023-04-23T00:32:20;8.93;;;5.38;;
35518;SDS011;21627;48.216;16.482;2023-04-23T00:34:48;11.10;;;4.55;;
35518;SDS011;21627;48.216;16.482;2023-04-23T00:37:15;13.82;;;5.28;;
35518;SDS011;21627;48.216;16.482;2023-04-23T00:39:43;9.18;;;5.00;;
35518;SDS011;21627;48.216;16.482;2023-04-23T00:42:10;11.40;;;4.55;;
35518;SDS011;21627;48.216;16.482;2023-04-23T00:44:38;12.45;;;5.07;;
35518;SDS011;21627;48.216;16.482;2023-04-23T00:47:07;13.05;;;5.22;;
35518;SDS011;21627;48.216;16.482;2023-04-23T00:49:35;8.48;;;4.72;;
35518;SDS011;21627;48.216;16.482;2023-04-23T00:52:04;9.93;;;5.10;;
35518;SDS011;21627;48.216;16.482;2023-04-23T00:54:32;8.65;;;4.88;;
35518;SDS011;21627;48.216;16.482;2023-04-23T00:56:59;10.40;;;5.03;;
35518;SDS011;21627;48.216;16.482;2023-04-23T00:59:28;7.97;;;5.28;;
35518;SDS011;21627;48.216;16.482;2023-04-23T01:01:56;7.47;;;5.15;;
35518;SDS011;21627;48.216;16.482;2023-04-23T01:04:26;12.55;;;5.45;;
35518;SDS011;21627;48.216;16.482;2023-04-23T01:06:55;7.90;;;5.35;;
35518;SDS011;21627;48.216;16.482;2023-04-23T01:09:24;9.18;;;5.82;;
35518;SDS011;21627;48.216;16.482;2023-04-23T01:11:53;9.68;;;5.38;;
35518;SDS011;21627;48.216;16.482;2023-04-23T01:14:20;9.50;;;5.10;;
35518;SDS011;21627;48.216;16.482;2023-04-23T01:16:47;13.15;;;5.97;;
35518;SDS011;21627;48.216;16.482;2023-04-23T01:19:15;16.48;;;5.90;;
35518;SDS011;21627;48.216;16.482;2023-04-23T01:21:42;11.18;;;6.03;;
35518;SDS011;21627;48.216;16.482;2023-04-23T01:24:10;11.10;;;5.72;;
35518;SDS011;21627;48.216;16.482;2023-04-23T01:26:38;10.05;;;5.53;;
35518;SDS011;21627;48.216;16.482;2023-04-23T01:29:05;9.38;;;5.60;;
35518;SDS011;21627;48.216;16.482;2023-04-23T01:31:33;10.32;;;5.40;;
35518;SDS011;21627;48.216;16.482;2023-04-23T01:34:00;12.27;;;5.72;;
35518;SDS011;21627;48.216;16.482;2023-04-23T01:36:28;8.85;;;5.28;;
35518;SDS011;21627;48.216;16.482;2023-04-23T01:38:56;18.15;;;6.35;;
35518;SDS011;21627;48.216;16.482;2023-04-23T01:41:23;9.90;;;5.50;;
35518;SDS011;21627;48.216;16.482;2023-04-23T01:43:50;10.85;;;6.10;;
35518;SDS011;21627;48.216;16.482;2023-04-23T01:46:19;6.60;;;5.25;;
35518;SDS011;21627;48.216;16.482;2023-04-23T01:48:47;12.13;;;6.00;;
35518;SDS011;21627;48.216;16.482;2023-04-23T01:51:14;11.85;;;5.88;;
35518;SDS011;21627;48.216;16.482;2023-04-23T01:53:41;11.10;;;5.90;;
35518;SDS011;21627;48.216;16.482;2023-04-23T01:56:09;10.20;;;5.75;;
35518;SDS011;21627;48.216;16.482;2023-04-23T01:58:36;9.55;;;5.78;;
35518;SDS011;21627;48.216;16.482;2023-04-23T02:01:04;13.68;;;6.30;;
35518;SDS011;21627;48.216;16.482;2023-04-23T02:03:31;10.60;;;5.97;;
35518;SDS011;21627;48.216;16.482;2023-04-23T02:05:59;12.35;;;6.00;;
35518;SDS011;21627;48.216;16.482;2023-04-23T02:08:26;19.30;;;6.90;;
35518;SDS011;21627;48.216;16.482;2023-04-23T02:10:54;12.85;;;6.13;;
35518;SDS011;21627;48.216;16.482;2023-04-23T02:13:21;10.65;;;5.82;;
35518;SDS011;21627;48.216;16.482;2023-04-23T02:15:48;9.93;;;6.03;;
35518;SDS011;21627;48.216;16.482;2023-04-23T02:18:15;10.65;;;5.97;;
35518;SDS011;21627;48.216;16.482;2023-04-23T02:20:43;12.57;;;6.20;;
35518;SDS011;21627;48.216;16.482;2023-04-23T02:23:10;7.85;;;5.55;;
35518;SDS011;21627;48.216;16.482;2023-04-23T02:25:37;12.60;;;6.75;;
35518;SDS011;21627;48.216;16.482;2023-04-23T02:28:05;11.27;;;6.35;;
35518;SDS011;21627;48.216;16.482;2023-04-23T02:30:34;12.63;;;6.65;;
35518;SDS011;21627;48.216;16.482;2023-04-23T02:33:01;13.80;;;7.10;;
35518;SDS011;21627;48.216;16.482;2023-04-23T02:35:29;9.20;;;6.50;;
35518;SDS011;21627;48.216;16.482;2023-04-23T02:37:56;17.75;;;6.28;;
35518;SDS011;21627;48.216;16.482;2023-04-23T02:40:23;12.70;;;6.57;;
35518;SDS011;21627;48.216;16.482;2023-04-23T02:42:51;15.38;;;6.43;;
35518;SDS011;21627;48.216;16.482;2023-04-23T02:45:18;9.05;;;6.05;;
35518;SDS011;21627;48.216;16.482;2023-04-23T02:47:45;9.13;;;6.30;;
35518;SDS011;21627;48.216;16.482;2023-04-23T02:50:12;10.48;;;6.35;;
35518;SDS011;21627;48.216;16.482;2023-04-23T02:52:39;13.30;;;6.43;;
35518;SDS011;21627;48.216;16.482;2023-04-23T02:55:06;10.30;;;6.35;;
35518;SDS011;21627;48.216;16.482;2023-04-23T02:57:35;10.85;;;6.95;;
35518;SDS011;21627;48.216;16.482;2023-04-23T03:00:02;13.15;;;6.57;;
35518;SDS011;21627;48.216;16.482;2023-04-23T03:02:32;11.63;;;7.07;;
35518;SDS011;21627;48.216;16.482;2023-04-23T03:05:00;17.30;;;6.97;;
35518;SDS011;21627;48.216;16.482;2023-04-23T03:07:27;15.10;;;6.82;;
35518;SDS011;21627;48.216;16.482;2023-04-23T03:09:54;9.48;;;5.80;;
35518;SDS011;21627;48.216;16.482;2023-04-23T03:12:21;15.10;;;6.72;;
35518;SDS011;21627;48.216;16.482;2023-04-23T03:14:48;11.98;;;7.05;;
35518;SDS011;21627;48.216;16.482;2023-04-23T03:17:15;9.95;;;6.63;;
35518;SDS011;21627;48.216;16.482;2023-04-23T03:19:43;12.35;;;6.95;;
35518;SDS011;21627;48.216;16.482;2023-04-23T03:22:10;11.35;;;6.72;;
35518;SDS011;21627;48.216;16.482;2023-04-23T03:24:37;11.02;;;6.85;;
35518;SDS011;21627;48.216;16.482;2023-04-23T03:27:04;16.85;;;7.30;;
35518;SDS011;21627;48.216;16.482;2023-04-23T03:29:31;13.32;;;6.78;;
35518;SDS011;21627;48.216;16.482;2023-04-23T03:31:58;13.88;;;7.70;;
35518;SDS011;21627;48.216;16.482;2023-04-23T03:34:26;11.13;;;6.75;;
35518;SDS011;21627;48.216;16.482;2023-04-23T03:36:53;21.15;;;8.32;;
35518;SDS011;21627;48.216;16.482;2023-04-23T03:39:20;11.50;;;8.05;;
35518;SDS011;21627;48.216;16.482;2023-04-23T03:41:47;12.50;;;7.25;;
35518;SDS011;21627;48.216;16.482;2023-04-23T03:44:14;13.82;;;6.95;;
35518;SDS011;21627;48.216;16.482;2023-04-23T03:46:42;15.45;;;7.43;;
35518;SDS011;21627;48.216;16.482;2023-04-23T03:49:09;13.55;;;7.20;;
35518;SDS011;21627;48.216;16.482;2023-04-23T03:51:36;14.32;;;7.95;;
35518;SDS011;21627;48.216;16.482;2023-04-23T03:54:03;12.35;;;7.97;;
35518;SDS011;21627;48.216;16.482;2023-04-23T03:56:30;14.57;;;7.38;;
35518;SDS011;21627;48.216;16.482;2023-04-23T03:58:58;13.48;;;7.63;;
35518;SDS011;21627;48.216;16.482;2023-04-23T04:01:25;14.40;;;7.32;;
35518;SDS011;21627;48.216;16.482;2023-04-23T04:03:52;13.23;;;7.60;;
35518;SDS011;21627;48.216;16.482;2023-04-23T04:06:19;13.73;;;7.97;;
35518;SDS011;21627;48.216;16.482;2023-04-23T04:08:46;13.35;;;7.50;;
35518;SDS011;21627;48.216;16.482;2023-04-23T04:11:13;11.63;;;7.57;;
35518;SDS011;21627;48.216;16.482;2023-04-23T04:13:40;13.48;;;7.57;;
35518;SDS011;21627;48.216;16.482;2023-04-23T04:16:08;13.15;;;8.32;;
35518;SDS011;21627;48.216;16.482;2023-04-23T04:18:35;13.15;;;7.47;;
35518;SDS011;21627;48.216;16.482;2023-04-23T04:21:02;17.45;;;7.75;;
35518;SDS011;21627;48.216;16.482;2023-04-23T04:23:29;19.48;;;9.30;;
35518;SDS011;21627;48.216;16.482;2023-04-23T04:25:56;13.07;;;8.30;;
35518;SDS011;21627;48.216;16.482;2023-04-23T04:28:25;15.73;;;8.45;;
35518;SDS011;21627;48.216;16.482;2023-04-23T04:30:52;14.43;;;7.90;;
35518;SDS011;21627;48.216;16.482;2023-04-23T04:33:20;15.68;;;8.50;;
35518;SDS011;21627;48.216;16.482;2023-04-23T04:35:47;11.13;;;7.80;;
35518;SDS011;21627;48.216;16.482;2023-04-23T04:38:14;11.00;;;8.02;;
35518;SDS011;21627;48.216;16.482;2023-04-23T04:40:42;18.48;;;8.48;;
35518;SDS011;21627;48.216;16.482;2023-04-23T04:43:09;12.30;;;8.18;;
35518;SDS011;21627;48.216;16.482;2023-04-23T04:45:36;16.63;;;8.38;;
35518;SDS011;21627;48.216;16.482;2023-04-23T04:48:03;14.10;;;8.57;;
35518;SDS011;21627;48.216;16.482;2023-04-23T04:50:30;14.90;;;7.93;;
35518;SDS011;21627;48.216;16.482;2023-04-23T04:52:57;12.75;;;8.98;;
35518;SDS011;21627;48.216;16.482;2023-04-23T04:55:25;14.57;;;8.13;;
35518;SDS011;21627;48.216;16.482;2023-04-23T04:57:53;10.40;;;8.02;;
35518;SDS011;21627;48.216;16.482;2023-04-23T05:00:21;13.88;;;7.63;;
35518;SDS011;21627;48.216;16.482;2023-04-23T05:02:55;14.85;;;8.98;;
35518;SDS011;21627;48.216;16.482;2023-04-23T05:05:24;16.17;;;8.50;;
35518;SDS011;21627;48.216;16.482;2023-04-23T05:07:52;14.30;;;8.10;;
35518;SDS011;21627;48.216;16.482;2023-04-23T05:10:20;11.13;;;7.97;;
35518;SDS011;21627;48.216;16.482;2023-04-23T05:12:47;15.65;;;8.98;;
35518;SDS011;21627;48.216;16.482;2023-04-23T05:15:17;14.32;;;8.13;;
35518;SDS011;21627;48.216;16.482;2023-04-23T05:17:44;11.90;;;8.10;;
35518;SDS011;21627;48.216;16.482;2023-04-23T05:20:11;14.80;;;7.72;;
35518;SDS011;21627;48.216;16.482;2023-04-23T05:22:40;14.48;;;9.13;;
35518;SDS011;21627;48.216;16.482;2023-04-23T05:25:08;10.32;;;7.13;;
35518;SDS011;21627;48.216;16.482;2023-04-23T05:27:37;10.35;;;7.65;;
35518;SDS011;21627;48.216;16.482;2023-04-23T05:30:06;13.98;;;8.68;;
35518;SDS011;21627;48.216;16.482;2023-04-23T05:32:35;12.50;;;8.15;;
35518;SDS011;21627;48.216;16.482;2023-04-23T05:35:03;12.10;;;7.78;;
35518;SDS011;21627;48.216;16.482;2023-04-23T05:37:32;13.63;;;8.10;;
35518;SDS011;21627;48.216;16.482;2023-04-23T05:40:00;15.65;;;7.85;;
35518;SDS011;21627;48.216;16.482;2023-04-23T05:42:28;10.45;;;6.82;;
35518;SDS011;21627;48.216;16.482;2023-04-23T05:44:55;13.98;;;7.45;;
35518;SDS011;21627;48.216;16.482;2023-04-23T05:47:22;16.55;;;7.90;;
35518;SDS011;21627;48.216;16.482;2023-04-23T05:49:49;15.25;;;7.72;;
35518;SDS011;21627;48.216;16.482;2023-04-23T05:52:17;10.70;;;7.38;;
35518;SDS011;21627;48.216;16.482;2023-04-23T05:54:44;13.23;;;6.80;;
35518;SDS011;21627;48.216;16.482;2023-04-23T05:57:12;14.93;;;6.75;;
35518;SDS011;21627;48.216;16.482;2023-04-23T05:59:40;10.65;;;6.93;;
35518;SDS011;21627;48.216;16.482;2023-04-23T06:02:07;15.32;;;6.75;;
35518;SDS011;21627;48.216;16.482;2023-04-23T06:04:36;14.13;;;7.05;;
35518;SDS011;21627;48.216;16.482;2023-04-23T06:07:04;8.73;;;6.70;;
35518;SDS011;21627;48.216;16.482;2023-04-23T06:09:32;12.43;;;6.72;;
35518;SDS011;21627;48.216;16.482;2023-04-23T06:11:59;14.98;;;7.40;;
35518;SDS011;21627;48.216;16.482;2023-04-23T06:14:26;12.95;;;6.55;;
35518;SDS011;21627;48.216;16.482;2023-04-23T06:16:53;13.43;;;7.72;;
35518;SDS011;21627;48.216;16.482;2023-04-23T06:19:20;10.18;;;7.22;;
35518;SDS011;21627;48.216;16.482;2023-04-23T06:21:50;16.45;;;8.07;;
35518;SDS011;21627;48.216;16.482;2023-04-23T06:24:17;12.73;;;8.23;;
35518;SDS011;21627;48.216;16.482;2023-04-23T06:26:44;16.98;;;8.00;;
35518;SDS011;21627;48.216;16.482;2023-04-23T06:29:12;11.40;;;7.18;;
35518;SDS011;21627;48.216;16.482;2023-04-23T06:31:39;18.15;;;8.20;;
35518;SDS011;21627;48.216;16.482;2023-04-23T06:34:07;15.30;;;8.02;;
35518;SDS011;21627;48.216;16.482;2023-04-23T06:36:34;15.05;;;7.53;;
35518;SDS011;21627;48.216;16.482;2023-04-23T06:39:01;13.38;;;7.32;;
35518;SDS011;21627;48.216;16.482;2023-04-23T06:41:29;16.52;;;7.88;;
35518;SDS011;21627;48.216;16.482;2023-04-23T06:43:56;15.07;;;7.78;;
35518;SDS011;21627;48.216;16.482;2023-04-23T06:46:23;10.95;;;7.45;;
35518;SDS011;21627;48.216;16.482;2023-04-23T06:48:50;15.23;;;7.47;;
35518;SDS011;21627;48.216;16.482;2023-04-23T06:51:17;14.63;;;7.82;;
35518;SDS011;21627;48.216;16.482;2023-04-23T06:53:45;14.05;;;7.18;;
35518;SDS011;21627;48.216;16.482;2023-04-23T06:56:12;19.55;;;8.90;;
35518;SDS011;21627;48.216;16.482;2023-04-23T06:58:40;10.85;;;7.20;;
35518;SDS011;21627;48.216;16.482;2023-04-23T07:01:07;10.40;;;7.30;;
35518;SDS011;21627;48.216;16.482;2023-04-23T07:03:35;11.07;;;6.53;;
35518;SDS011;21627;48.216;16.482;2023-04-23T07:06:02;20.75;;;6.72;;
35518;SDS011;21627;48.216;16.482;2023-04-23T07:08:30;12.18;;;6.53;;
35518;SDS011;21627;48.216;16.482;2023-04-23T07:10:57;14.73;;;6.55;;
35518;SDS011;21627;48.216;16.482;2023-04-23T07:13:24;10.25;;;5.68;;
35518;SDS011;21627;48.216;16.482;2023-04-23T07:15:51;13.13;;;6.60;;
35518;SDS011;21627;48.216;16.482;2023-04-23T07:18:19;13.25;;;7.13;;
35518;SDS011;21627;48.216;16.482;2023-04-23T07:20:46;9.60;;;5.82;;
35518;SDS011;21627;48.216;16.482;2023-04-23T07:23:13;12.35;;;6.40;;
35518;SDS011;21627;48.216;16.482;2023-04-23T07:25:40;15.85;;;6.20;;
35518;SDS011;21627;48.216;16.482;2023-04-23T07:28:07;10.18;;;5.80;;
35518;SDS011;21627;48.216;16.482;2023-04-23T07:30:34;18.40;;;6.35;;
35518;SDS011;21627;48.216;16.482;2023-04-23T07:33:02;13.30;;;6.60;;
35518;SDS011;21627;48.216;16.482;2023-04-23T07:35:29;14.00;;;6.53;;
35518;SDS011;21627;48.216;16.482;2023-04-23T07:37:56;11.38;;;5.65;;
35518;SDS011;21627;48.216;16.482;2023-04-23T07:40:23;10.00;;;6.07;;
35518;SDS011;21627;48.216;16.482;2023-04-23T07:42:51;11.00;;;5.60;;
35518;SDS011;21627;48.216;16.482;2023-04-23T07:45:21;11.15;;;5.85;;
35518;SDS011;21627;48.216;16.482;2023-04-23T07:47:48;16.90;;;6.43;;
35518;SDS011;21627;48.216;16.482;2023-04-23T07:50:16;9.73;;;5.28;;
35518;SDS011;21627;48.216;16.482;2023-04-23T07:52:43;13.55;;;6.35;;
35518;SDS011;21627;48.216;16.482;2023-04-23T07:55:10;10.57;;;5.80;;
35518;SDS011;21627;48.216;16.482;2023-04-23T07:57:37;12.48;;;5.93;;
35518;SDS011;21627;48.216;16.482;2023-04-23T08:00:05;17.48;;;6.82;;
35518;SDS011;21627;48.216;16.482;2023-04-23T08:02:34;11.82;;;6.88;;
35518;SDS011;21627;48.216;16.482;2023-04-23T08:05:02;13.20;;;5.78;;
35518;SDS011;21627;48.216;16.482;2023-04-23T08:07:29;13.65;;;6.22;;
35518;SDS011;21627;48.216;16.482;2023-04-23T08:09:56;12.70;;;5.38;;
35518;SDS011;21627;48.216;16.482;2023-04-23T08:12:28;10.90;;;5.90;;
35518;SDS011;21627;48.216;16.482;2023-04-23T08:14:56;8.23;;;5.55;;
35518;SDS011;21627;48.216;16.482;2023-04-23T08:17:23;9.38;;;5.38;;
35518;SDS011;21627;48.216;16.482;2023-04-23T08:19:51;12.75;;;5.57;;
35518;SDS011;21627;48.216;16.482;2023-04-23T08:22:18;11.02;;;6.28;;
35518;SDS011;21627;48.216;16.482;2023-04-23T08:24:46;15.25;;;5.85;;
35518;SDS011;21627;48.216;16.482;2023-04-23T08:27:13;7.85;;;5.20;;
35518;SDS011;21627;48.216;16.482;2023-04-23T08:29:41;11.65;;;6.30;;
35518;SDS011;21627;48.216;16.482;2023-04-23T08:32:08;19.92;;;6.10;;
35518;SDS011;21627;48.216;16.482;2023-04-23T08:34:35;13.00;;;5.07;;
35518;SDS011;21627;48.216;16.482;2023-04-23T08:37:03;12.75;;;5.30;;
35518;SDS011;21627;48.216;16.482;2023-04-23T08:39:35;10.65;;;4.97;;
35518;SDS011;21627;48.216;16.482;2023-04-23T08:42:09;9.80;;;4.82;;
35518;SDS011;21627;48.216;16.482;2023-04-23T08:44:44;11.43;;;5.82;;
35518;SDS011;21627;48.216;16.482;2023-04-23T08:47:13;10.40;;;5.10;;
35518;SDS011;21627;48.216;16.482;2023-04-23T08:49:44;18.02;;;5.70;;
35518;SDS011;21627;48.216;16.482;2023-04-23T08:52:15;13.80;;;6.05;;
35518;SDS011;21627;48.216;16.482;2023-04-23T08:54:48;8.73;;;5.30;;
35518;SDS011;21627;48.216;16.482;2023-04-23T08:57:19;16.05;;;5.22;;
35518;SDS011;21627;48.216;16.482;2023-04-23T08:59:46;17.30;;;5.78;;
35518;SDS011;21627;48.216;16.482;2023-04-23T09:02:14;9.60;;;5.20;;
35518;SDS011;21627;48.216;16.482;2023-04-23T09:04:44;10.13;;;5.13;;
35518;SDS011;21627;48.216;16.482;2023-04-23T09:07:14;9.48;;;5.80;;
35518;SDS011;21627;48.216;16.482;2023-04-23T09:09:43;9.88;;;5.03;;
35518;SDS011;21627;48.216;16.482;2023-04-23T09:12:10;8.32;;;5.22;;
35518;SDS011;21627;48.216;16.482;2023-04-23T09:14:40;12.18;;;4.93;;
35518;SDS011;21627;48.216;16.482;2023-04-23T09:17:08;9.02;;;5.28;;
35518;SDS011;21627;48.216;16.482;2023-04-23T09:19:35;8.52;;;4.97;;
35518;SDS011;21627;48.216;16.482;2023-04-23T09:22:05;7.65;;;4.45;;
35518;SDS011;21627;48.216;16.482;2023-04-23T09:24:33;13.77;;;5.75;;
35518;SDS011;21627;48.216;16.482;2023-04-23T09:27:00;9.13;;;4.85;;
35518;SDS011;21627;48.216;16.482;2023-04-23T09:29:29;5.43;;;4.93;;
35518;SDS011;21627;48.216;16.482;2023-04-23T09:32:06;8.82;;;4.95;;
35518;SDS011;21627;48.216;16.482;2023-04-23T09:34:35;10.45;;;4.63;;
35518;SDS011;21627;48.216;16.482;2023-04-23T09:37:04;16.30;;;4.93;;
35518;SDS011;21627;48.216;16.482;2023-04-23T09:39:36;8.50;;;4.55;;
35518;SDS011;21627;48.216;16.482;2023-04-23T09:42:05;9.10;;;4.53;;
35518;SDS011;21627;48.216;16.482;2023-04-23T09:44:35;10.70;;;4.75;;
35518;SDS011;21627;48.216;16.482;2023-04-23T09:47:06;9.38;;;4.85;;
35518;SDS011;21627;48.216;16.482;2023-04-23T09:49:46;13.10;;;4.30;;
35518;SDS011;21627;48.216;16.482;2023-04-23T09:52:14;9.43;;;4.32;;
35518;SDS011;21627;48.216;16.482;2023-04-23T09:54:43;7.00;;;4.28;;
35518;SDS011;21627;48.216;16.482;2023-04-23T09:57:11;9.90;;;4.85;;
35518;SDS011;21627;48.216;16.482;2023-04-23T09:59:39;8.57;;;4.47;;
35518;SDS011;21627;48.216;16.482;2023-04-23T10:02:18;12.48;;;4.72;;
35518;SDS011;21627;48.216;16.482;2023-04-23T10:04:49;10.90;;;5.22;;
35518;SDS011;21627;48.216;16.482;2023-04-23T10:07:21;6.90;;;3.88;;
35518;SDS011;21627;48.216;16.482;2023-04-23T10:09:49;11.95;;;4.53;;
35518;SDS011;21627;48.216;16.482;2023-04-23T10:12:17;8.73;;;4.20;;
35518;SDS011;21627;48.216;16.482;2023-04-23T10:15:06;7.00;;;4.22;;
35518;SDS011;21627;48.216;16.482;2023-04-23T10:17:37;17.80;;;3.88;;
35518;SDS011;21627;48.216;16.482;2023-04-23T10:20:06;6.07;;;3.30;;
35518;SDS011;21627;48.216;16.482;2023-04-23T10:22:36;6.22;;;3.92;;
35518;SDS011;21627;48.216;16.482;2023-04-23T10:25:05;11.40;;;3.53;;
35518;SDS011;21627;48.216;16.482;2023-04-23T10:27:37;6.10;;;3.92;;
35518;SDS011;21627;48.216;16.482;2023-04-23T10:30:19;11.40;;;4.45;;
35518;SDS011;21627;48.216;16.482;2023-04-23T10:32:48;12.77;;;3.55;;
35518;SDS011;21627;48.216;16.482;2023-04-23T10:35:16;6.50;;;3.50;;
35518;SDS011;21627;48.216;16.482;2023-04-23T10:37:43;6.47;;;3.42;;
35518;SDS011;21627;48.216;16.482;2023-04-23T10:40:15;8.30;;;3.63;;
35518;SDS011;21627;48.216;16.482;2023-04-23T10:43:06;7.18;;;3.20;;
35518;SDS011;21627;48.216;16.482;2023-04-23T10:45:33;8.80;;;3.83;;
35518;SDS011;21627;48.216;16.482;2023-04-23T10:48:00;5.05;;;3.25;;
35518;SDS011;21627;48.216;16.482;2023-04-23T10:50:28;8.55;;;3.83;;
35518;SDS011;21627;48.216;16.482;2023-04-23T10:53:00;9.25;;;4.10;;
35518;SDS011;21627;48.216;16.482;2023-04-23T10:55:29;5.60;;;3.30;;
35518;SDS011;21627;48.216;16.482;2023-04-23T10:58:01;4.60;;;3.58;;
35518;SDS011;21627;48.216;16.482;2023-04-23T11:05:55;7.00;;;3.47;;
35518;SDS011;21627;48.216;16.482;2023-04-23T11:08:23;12.15;;;4.80;;
35518;SDS011;21627;48.216;16.482;2023-04-23T11:10:56;6.85;;;3.80;;
35518;SDS011;21627;48.216;16.482;2023-04-23T11:13:25;9.63;;;3.70;;
35518;SDS011;21627;48.216;16.482;2023-04-23T11:18:56;6.95;;;3.45;;
35518;SDS011;21627;48.216;16.482;2023-04-23T11:24:50;10.70;;;3.80;;
35518;SDS011;21627;48.216;16.482;2023-04-23T11:27:17;6.43;;;4.20;;
35518;SDS011;21627;48.216;16.482;2023-04-23T11:29:45;6.55;;;3.55;;
35518;SDS011;21627;48.216;16.482;2023-04-23T11:32:14;6.20;;;3.10;;
35518;SDS011;21627;48.216;16.482;2023-04-23T11:34:43;4.88;;;3.33;;
35518;SDS011;21627;48.216;16.482;2023-04-23T11:37:17;14.10;;;3.30;;
35518;SDS011;21627;48.216;16.482;2023-04-23T11:39:45;7.35;;;3.53;;
35518;SDS011;21627;48.216;16.482;2023-04-23T11:42:16;6.88;;;3.22;;
35518;SDS011;21627;48.216;16.482;2023-04-23T11:44:45;10.00;;;4.13;;
35518;SDS011;21627;48.216;16.482;2023-04-23T11:47:14;10.00;;;3.97;;
35518;SDS011;21627;48.216;16.482;2023-04-23T11:49:42;4.78;;;3.17;;
35518;SDS011;21627;48.216;16.482;2023-04-23T11:52:11;6.78;;;3.15;;
35518;SDS011;21627;48.216;16.482;2023-04-23T11:54:40;12.75;;;3.42;;
35518;SDS011;21627;48.216;16.482;2023-04-23T11:57:07;7.22;;;3.22;;
35518;SDS011;21627;48.216;16.482;2023-04-23T11:59:35;7.57;;;3.30;;
35518;SDS011;21627;48.216;16.482;2023-04-23T12:02:03;7.55;;;3.30;;
35518;SDS011;21627;48.216;16.482;2023-04-23T12:04:31;8.75;;;3.97;;
35518;SDS011;21627;48.216;16.482;2023-04-23T12:06:59;7.13;;;3.28;;
35518;SDS011;21627;48.216;16.482;2023-04-23T12:09:35;14.70;;;3.25;;
35518;SDS011;21627;48.216;16.482;2023-04-23T12:12:03;7.80;;;3.17;;
35518;SDS011;21627;48.216;16.482;2023-04-23T12:14:31;6.70;;;3.25;;
35518;SDS011;21627;48.216;16.482;2023-04-23T12:17:07;6.55;;;3.58;;
35518;SDS011;21627;48.216;16.482;2023-04-23T12:19:36;6.15;;;2.83;;
35518;SDS011;21627;48.216;16.482;2023-04-23T12:22:06;6.72;;;2.95;;
35518;SDS011;21627;48.216;16.482;2023-04-23T12:24:47;3.88;;;2.75;;
35518;SDS011;21627;48.216;16.482;2023-04-23T12:29:48;5.25;;;2.95;;
35518;SDS011;21627;48.216;16.482;2023-04-23T12:32:25;5.78;;;2.97;;
35518;SDS011;21627;48.216;16.482;2023-04-23T12:34:52;3.35;;;2.65;;
35518;SDS011;21627;48.216;16.482;2023-04-23T12:37:25;4.72;;;3.03;;
35518;SDS011;21627;48.216;16.482;2023-04-23T12:39:55;5.95;;;2.75;;
35518;SDS011;21627;48.216;16.482;2023-04-23T12:42:24;6.95;;;3.50;;
35518;SDS011;21627;48.216;16.482;2023-04-23T12:44:52;3.45;;;2.65;;
35518;SDS011;21627;48.216;16.482;2023-04-23T12:47:21;3.83;;;2.65;;
35518;SDS011;21627;48.216;16.482;2023-04-23T12:49:48;6.97;;;3.00;;
35518;SDS011;21627;48.216;16.482;2023-04-23T12:52:19;8.85;;;3.65;;
35518;SDS011;21627;48.216;16.482;2023-04-23T12:54:46;5.13;;;2.80;;
35518;SDS011;21627;48.216;16.482;2023-04-23T12:57:17;5.30;;;2.70;;
35518;SDS011;21627;48.216;16.482;2023-04-23T12:59:48;6.68;;;2.40;;
35518;SDS011;21627;48.216;16.482;2023-04-23T13:02:16;7.47;;;2.88;;
35518;SDS011;21627;48.216;16.482;2023-04-23T13:04:43;5.82;;;2.70;;
35518;SDS011;21627;48.216;16.482;2023-04-23T13:07:10;6.78;;;2.63;;
35518;SDS011;21627;48.216;16.482;2023-04-23T13:09:37;6.32;;;2.90;;
35518;SDS011;21627;48.216;16.482;2023-04-23T13:12:05;7.50;;;2.70;;
35518;SDS011;21627;48.216;16.482;2023-04-23T13:14:32;4.80;;;2.45;;
35518;SDS011;21627;48.216;16.482;2023-04-23T13:16:59;4.13;;;2.72;;
35518;SDS011;21627;48.216;16.482;2023-04-23T13:19:26;4.15;;;2.80;;
35518;SDS011;21627;48.216;16.482;2023-04-23T13:21:53;6.68;;;2.60;;
35518;SDS011;21627;48.216;16.482;2023-04-23T13:24:20;4.75;;;2.53;;
35518;SDS011;21627;48.216;16.482;2023-04-23T13:26:47;6.22;;;2.72;;
35518;SDS011;21627;48.216;16.482;2023-04-23T13:29:15;4.70;;;2.50;;
35518;SDS011;21627;48.216;16.482;2023-04-23T13:31:42;8.85;;;3.22;;
35518;SDS011;21627;48.216;16.482;2023-04-23T13:34:09;8.27;;;3.10;;
35518;SDS011;21627;48.216;16.482;2023-04-23T13:36:36;5.95;;;2.55;;
35518;SDS011;21627;48.216;16.482;2023-04-23T13:39:06;5.70;;;2.53;;
35518;SDS011;21627;48.216;16.482;2023-04-23T13:41:35;3.88;;;3.00;;
35518;SDS011;21627;48.216;16.482;2023-04-23T13:44:02;9.27;;;2.80;;
35518;SDS011;21627;48.216;16.482;2023-04-23T13:46:29;11.77;;;2.78;;
35518;SDS011;21627;48.216;16.482;2023-04-23T13:48:57;6.78;;;2.80;;
35518;SDS011;21627;48.216;16.482;2023-04-23T13:51:26;8.75;;;2.65;;
35518;SDS011;21627;48.216;16.482;2023-04-23T13:54:01;8.85;;;3.15;;
35518;SDS011;21627;48.216;16.482;2023-04-23T13:56:29;7.10;;;2.83;;
35518;SDS011;21627;48.216;16.482;2023-04-23T13:58:57;6.63;;;3.33;;
35518;SDS011;21627;48.216;16.482;2023-04-23T14:01:44;5.75;;;2.63;;
35518;SDS011;21627;48.216;16.482;2023-04-23T14:04:16;5.63;;;3.25;;
35518;SDS011;21627;48.216;16.482;2023-04-23T14:06:44;6.10;;;3.00;;
35518;SDS011;21627;48.216;16.482;2023-04-23T14:09:11;12.15;;;3.38;;
35518;SDS011;21627;48.216;16.482;2023-04-23T14:11:38;12.55;;;3.22;;
35518;SDS011;21627;48.216;16.482;2023-04-23T14:14:06;5.20;;;2.33;;
35518;SDS011;21627;48.216;16.482;2023-04-23T14:16:34;9.10;;;3.03;;
35518;SDS011;21627;48.216;16.482;2023-04-23T14:19:01;4.40;;;2.65;;
35518;SDS011;21627;48.216;16.482;2023-04-23T14:21:28;8.80;;;2.80;;
35518;SDS011;21627;48.216;16.482;2023-04-23T14:24:00;4.57;;;3.28;;
35518;SDS011;21627;48.216;16.482;2023-04-23T14:26:34;6.28;;;2.97;;
35518;SDS011;21627;48.216;16.482;2023-04-23T14:32:06;9.32;;;3.03;;
35518;SDS011;21627;48.216;16.482;2023-04-23T14:34:33;9.23;;;3.05;;
35518;SDS011;21627;48.216;16.482;2023-04-23T14:37:01;3.78;;;2.60;;
35518;SDS011;21627;48.216;16.482;2023-04-23T14:39:29;9.50;;;2.65;;
35518;SDS011;21627;48.216;16.482;2023-04-23T14:41:56;6.97;;;2.70;;
35518;SDS011;21627;48.216;16.482;2023-04-23T14:44:24;6.93;;;2.67;;
35518;SDS011;21627;48.216;16.482;2023-04-23T14:46:54;9.18;;;3.13;;
35518;SDS011;21627;48.216;16.482;2023-04-23T14:49:22;9.38;;;3.13;;